createdAt,value
2022-10-20T00:01:35.084Z,18.45
2022-10-20T00:04:02.186Z,18.55
2022-10-20T00:06:31.938Z,22.63
2022-10-20T00:09:04.339Z,15.80
2022-10-20T00:11:31.847Z,19.67
2022-10-20T00:14:00.810Z,15.93
2022-10-20T00:16:32.654Z,17.95
2022-10-20T00:18:59.869Z,18.35
2022-10-20T00:21:28.413Z,16.63
2022-10-20T00:23:56.213Z,17.30
2022-10-20T00:26:25.405Z,20.15
2022-10-20T00:28:53.902Z,23.00
2022-10-20T00:31:24.874Z,20.08
2022-10-20T00:33:54.645Z,21.42
2022-10-20T00:36:23.515Z,18.15
2022-10-20T00:38:53.940Z,21.10
2022-10-20T00:41:21.718Z,17.73
2022-10-20T00:43:53.225Z,16.58
2022-10-20T00:46:23.554Z,18.67
2022-10-20T00:48:55.044Z,16.25
2022-10-20T00:51:28.665Z,22.50
2022-10-20T00:54:09.990Z,19.90
2022-10-20T00:56:41.710Z,22.70
2022-10-20T00:59:10.788Z,20.48
2022-10-20T01:01:39.193Z,22.48
2022-10-20T01:04:11.963Z,20.02
2022-10-20T01:06:40.135Z,19.27
2022-10-20T01:09:18.337Z,21.38
2022-10-20T01:11:54.851Z,16.88
2022-10-20T01:14:47.212Z,20.60
2022-10-20T01:17:51.757Z,17.98
2022-10-20T01:20:36.224Z,22.30
2022-10-20T01:23:15.300Z,16.10
2022-10-20T01:26:08.815Z,22.35
2022-10-20T01:28:59.746Z,22.00
2022-10-20T01:32:14.449Z,15.95
2022-10-20T01:34:58.283Z,19.90
2022-10-20T01:37:48.808Z,19.63
2022-10-20T01:40:34.535Z,21.55
2022-10-20T01:43:07.902Z,22.17
2022-10-20T01:45:38.664Z,18.88
2022-10-20T01:48:07.863Z,23.23
2022-10-20T01:50:40.244Z,22.95
2022-10-20T01:55:38.460Z,21.00
2022-10-20T01:58:30.157Z,17.88
2022-10-20T02:01:13.775Z,21.13
2022-10-20T02:03:54.423Z,23.05
2022-10-20T02:07:07.682Z,27.35
2022-10-20T02:09:53.036Z,26.63
2022-10-20T02:12:28.329Z,29.35
2022-10-20T02:14:56.585Z,23.05
2022-10-20T02:17:28.270Z,22.50
2022-10-20T02:19:57.172Z,23.77
2022-10-20T02:22:24.944Z,24.30
2022-10-20T02:24:52.290Z,26.35
2022-10-20T02:27:27.257Z,29.60
2022-10-20T02:30:00.914Z,23.65
2022-10-20T02:32:29.672Z,22.85
2022-10-20T02:34:56.562Z,28.13
2022-10-20T02:37:23.681Z,25.45
2022-10-20T02:39:50.561Z,27.77
2022-10-20T02:42:17.527Z,24.02
2022-10-20T02:44:47.227Z,20.67
2022-10-20T02:47:14.262Z,19.15
2022-10-20T02:49:41.658Z,22.58
2022-10-20T02:52:08.636Z,20.92
2022-10-20T02:54:35.636Z,20.85
2022-10-20T02:57:02.964Z,19.75
2022-10-20T02:59:29.945Z,18.77
2022-10-20T03:01:59.756Z,24.13
2022-10-20T03:04:27.593Z,19.73
2022-10-20T03:06:54.527Z,21.45
2022-10-20T03:09:21.478Z,23.40
2022-10-20T03:11:51.564Z,32.50
2022-10-20T03:14:18.571Z,23.70
2022-10-20T03:16:48.340Z,23.75
2022-10-20T03:19:15.599Z,24.25
2022-10-20T03:21:44.660Z,19.17
2022-10-20T03:24:11.629Z,16.88
2022-10-20T03:26:38.883Z,20.92
2022-10-20T03:29:06.157Z,20.95
2022-10-20T03:31:33.069Z,20.88
2022-10-20T03:34:00.217Z,22.17
2022-10-20T03:36:27.392Z,22.90
2022-10-20T03:38:54.351Z,28.08
2022-10-20T03:41:21.321Z,21.50
2022-10-20T03:43:48.171Z,21.58
2022-10-20T03:46:15.186Z,23.50
2022-10-20T03:48:42.606Z,24.92
2022-10-20T03:51:11.706Z,22.48
2022-10-20T03:53:38.625Z,18.77
2022-10-20T03:56:08.470Z,18.67
2022-10-20T03:58:35.516Z,20.85
2022-10-20T04:01:03.513Z,17.83
2022-10-20T04:03:30.470Z,17.50
2022-10-20T04:05:57.465Z,19.13
2022-10-20T04:08:24.395Z,18.13
2022-10-20T04:10:51.660Z,18.55
2022-10-20T04:13:18.600Z,24.65
2022-10-20T04:15:46.206Z,15.80
2022-10-20T04:18:17.183Z,22.92
2022-10-20T04:20:46.686Z,25.27
2022-10-20T04:23:15.433Z,22.27
2022-10-20T04:25:47.899Z,20.58
2022-10-20T04:28:16.390Z,22.27
2022-10-20T04:30:43.691Z,25.25
2022-10-20T04:33:11.353Z,23.38
2022-10-20T04:35:39.400Z,30.00
2022-10-20T04:38:06.748Z,26.98
2022-10-20T04:40:33.967Z,29.70
2022-10-20T04:43:01.121Z,27.20
2022-10-20T04:45:28.875Z,23.73
2022-10-20T04:47:55.903Z,20.50
2022-10-20T04:50:24.706Z,18.65
2022-10-20T04:53:07.838Z,21.15
2022-10-20T04:55:35.882Z,21.58
2022-10-20T04:58:02.983Z,20.17
2022-10-20T05:00:32.944Z,20.77
2022-10-20T05:03:00.277Z,19.38
2022-10-20T05:05:27.505Z,17.65
2022-10-20T05:07:54.440Z,22.05
2022-10-20T05:10:21.961Z,14.88
2022-10-20T05:12:49.156Z,20.35
2022-10-20T05:15:16.305Z,17.23
2022-10-20T05:17:45.491Z,22.55
2022-10-20T05:20:15.252Z,14.43
2022-10-20T05:22:42.435Z,24.48
2022-10-20T05:25:36.232Z,16.55
2022-10-20T05:27:59.286Z,17.95
2022-10-20T05:30:26.310Z,17.23
2022-10-20T05:32:55.575Z,18.95
2022-10-20T05:35:22.710Z,19.95
2022-10-20T05:37:49.740Z,20.10
2022-10-20T05:40:16.913Z,16.67
2022-10-20T05:42:44.786Z,19.42
2022-10-20T05:45:12.081Z,17.83
2022-10-20T05:47:42.973Z,19.00
2022-10-20T05:50:10.728Z,19.38
2022-10-20T05:52:38.440Z,20.38
2022-10-20T05:55:10.003Z,21.00
2022-10-20T05:57:36.998Z,18.00
2022-10-20T06:00:05.126Z,18.55
2022-10-20T06:02:38.895Z,18.65
2022-10-20T06:05:06.137Z,19.17
2022-10-20T06:07:33.480Z,21.08
2022-10-20T06:10:01.846Z,23.95
2022-10-20T06:12:28.858Z,25.52
2022-10-20T06:14:55.846Z,24.85
2022-10-20T06:17:22.978Z,24.13
2022-10-20T06:19:51.229Z,23.17
2022-10-20T06:22:18.406Z,25.70
2022-10-20T06:24:47.953Z,26.95
2022-10-20T06:27:14.868Z,23.67
2022-10-20T06:29:41.878Z,19.15
2022-10-20T06:32:09.681Z,24.98
2022-10-20T06:34:39.193Z,24.15
2022-10-20T06:37:06.181Z,22.13
2022-10-20T06:39:35.740Z,22.42
2022-10-20T06:42:09.646Z,20.13
2022-10-20T06:47:12.379Z,19.77
2022-10-20T06:49:42.679Z,21.88
2022-10-20T06:54:38.662Z,19.60
2022-10-20T06:57:06.307Z,18.10
2022-10-20T06:59:35.869Z,19.27
2022-10-20T07:02:03.831Z,28.15
2022-10-20T07:04:31.067Z,17.52
2022-10-20T07:06:58.259Z,18.98
2022-10-20T07:09:27.899Z,15.95
2022-10-20T07:11:54.870Z,17.63
2022-10-20T07:14:22.162Z,19.00
2022-10-20T07:16:49.318Z,14.50
2022-10-20T07:19:18.848Z,15.55
2022-10-20T07:21:46.084Z,15.85
2022-10-20T07:24:13.914Z,18.00
2022-10-20T07:26:41.925Z,17.50
2022-10-20T07:29:10.776Z,14.43
2022-10-20T07:31:46.261Z,13.68
2022-10-20T07:34:27.522Z,14.45
2022-10-20T07:36:56.178Z,13.67
2022-10-20T07:39:23.369Z,15.55
2022-10-20T07:41:50.456Z,14.15
2022-10-20T07:44:20.496Z,14.75
2022-10-20T07:46:48.011Z,15.60
2022-10-20T07:52:03.668Z,14.57
2022-10-20T07:54:34.187Z,12.30
2022-10-20T07:57:04.130Z,14.90
2022-10-20T07:59:34.132Z,15.98
2022-10-20T08:02:01.218Z,18.75
2022-10-20T08:04:29.112Z,13.93
2022-10-20T08:06:56.370Z,15.45
2022-10-20T08:09:24.043Z,14.20
2022-10-20T08:11:55.275Z,13.73
2022-10-20T08:14:23.997Z,17.27
2022-10-20T08:22:18.996Z,12.90
2022-10-20T08:24:46.808Z,16.95
2022-10-20T08:27:14.043Z,13.05
2022-10-20T08:29:41.065Z,14.75
2022-10-20T08:32:08.453Z,15.98
2022-10-20T08:34:44.892Z,12.23
2022-10-20T08:37:11.949Z,13.07
2022-10-20T08:39:39.489Z,10.32
2022-10-20T08:42:09.164Z,16.42
2022-10-20T08:44:41.744Z,13.95
2022-10-20T08:47:36.765Z,18.10
2022-10-20T08:50:07.392Z,20.48
2022-10-20T08:52:34.662Z,16.73
2022-10-20T08:55:04.990Z,12.75
2022-10-20T08:57:36.132Z,14.80
2022-10-20T09:00:15.832Z,14.70
2022-10-20T09:02:43.532Z,11.07
2022-10-20T09:05:16.710Z,17.38
2022-10-20T09:07:52.678Z,15.15
2022-10-20T09:10:34.828Z,13.75
2022-10-20T09:13:06.918Z,20.05
2022-10-20T09:15:34.300Z,17.45
2022-10-20T09:18:09.342Z,16.48
2022-10-20T09:20:54.725Z,11.50
2022-10-20T09:23:40.517Z,15.18
2022-10-20T09:26:30.896Z,17.73
2022-10-20T09:29:15.481Z,13.23
2022-10-20T09:31:46.592Z,20.10
2022-10-20T09:34:42.831Z,17.48
2022-10-20T09:37:09.903Z,17.40
2022-10-20T09:39:58.414Z,17.20
2022-10-20T09:42:28.397Z,16.85
2022-10-20T09:45:08.493Z,15.40
2022-10-20T09:47:35.639Z,12.70
2022-10-20T09:50:08.074Z,19.55
2022-10-20T09:52:47.754Z,13.57
2022-10-20T09:55:28.333Z,15.25
2022-10-20T09:57:56.860Z,14.60
2022-10-20T10:00:41.296Z,14.95
2022-10-20T10:03:10.302Z,17.52
2022-10-20T10:05:37.517Z,14.48
2022-10-20T10:08:14.396Z,21.17
2022-10-20T10:10:43.380Z,15.30
2022-10-20T10:13:25.204Z,16.20
2022-10-20T10:16:24.997Z,15.82
2022-10-20T10:22:00.557Z,17.20
2022-10-20T10:24:44.100Z,15.50
2022-10-20T10:27:30.453Z,16.15
2022-10-20T10:30:29.379Z,17.73
2022-10-20T10:32:56.684Z,12.32
2022-10-20T10:35:41.226Z,13.07
2022-10-20T10:38:11.689Z,16.15
2022-10-20T10:40:53.909Z,20.35
2022-10-20T10:44:04.892Z,23.67
2022-10-20T10:47:00.170Z,18.85
2022-10-20T10:49:50.767Z,18.52
2022-10-20T10:52:47.423Z,19.45
2022-10-20T10:55:48.790Z,14.82
2022-10-20T10:58:45.887Z,15.50
2022-10-20T11:01:25.399Z,17.40
2022-10-20T11:04:10.745Z,24.13
2022-10-20T11:06:54.306Z,17.08
2022-10-20T11:09:30.029Z,16.02
2022-10-20T11:12:15.215Z,19.77
2022-10-20T11:15:05.201Z,20.65
2022-10-20T11:18:09.094Z,14.32
2022-10-20T11:21:00.046Z,15.70
2022-10-20T11:23:54.695Z,15.68
2022-10-20T11:26:33.239Z,21.50
2022-10-20T11:29:02.716Z,16.92
2022-10-20T11:31:44.455Z,16.25
2022-10-20T11:34:17.281Z,14.38
2022-10-20T11:37:00.148Z,19.50
2022-10-20T11:40:07.785Z,14.60
2022-10-20T11:43:08.908Z,13.50
2022-10-20T11:45:55.084Z,15.70
2022-10-20T11:48:32.309Z,14.02
2022-10-20T11:51:12.084Z,11.57
2022-10-20T11:53:59.706Z,13.95
2022-10-20T11:56:46.083Z,21.40
2022-10-20T11:59:51.298Z,20.77
2022-10-20T12:02:22.901Z,16.08
2022-10-20T12:05:27.219Z,15.65
2022-10-20T12:08:24.760Z,13.38
2022-10-20T12:11:12.843Z,17.75
2022-10-20T12:14:07.519Z,13.07
2022-10-20T12:16:54.943Z,9.30
2022-10-20T12:19:24.611Z,12.25
2022-10-20T12:22:01.667Z,14.40
2022-10-20T12:24:31.853Z,12.25
2022-10-20T12:27:07.635Z,12.73
2022-10-20T12:29:37.394Z,12.98
2022-10-20T12:32:24.405Z,6.68
2022-10-20T12:35:01.569Z,7.53
2022-10-20T12:37:34.552Z,8.60
2022-10-20T12:40:10.252Z,16.45
2022-10-20T12:42:40.195Z,9.63
2022-10-20T12:45:24.087Z,4.63
2022-10-20T12:48:00.404Z,8.95
2022-10-20T12:50:42.544Z,10.68
2022-10-20T12:53:16.557Z,9.18
2022-10-20T12:55:56.328Z,6.65
2022-10-20T12:58:23.414Z,9.70
2022-10-20T13:00:50.472Z,6.10
2022-10-20T13:03:37.927Z,7.75
2022-10-20T13:06:42.709Z,7.50
2022-10-20T13:09:21.855Z,7.57
2022-10-20T13:12:00.719Z,11.02
2022-10-20T13:14:42.997Z,5.82
2022-10-20T13:17:12.455Z,7.35
2022-10-20T13:19:47.287Z,10.40
2022-10-20T13:22:54.032Z,7.90
2022-10-20T13:25:38.354Z,5.75
2022-10-20T13:28:18.595Z,8.35
2022-10-20T13:30:57.188Z,11.63
2022-10-20T13:36:40.404Z,7.38
2022-10-20T13:39:38.010Z,5.88
2022-10-20T13:42:34.775Z,3.88
2022-10-20T13:45:07.923Z,7.30
2022-10-20T13:48:00.886Z,6.43
2022-10-20T13:50:36.430Z,7.65
2022-10-20T13:53:16.333Z,5.32
2022-10-20T13:56:17.774Z,7.43
2022-10-20T13:59:24.510Z,3.57
2022-10-20T14:01:58.334Z,4.60
2022-10-20T14:05:02.388Z,7.53
2022-10-20T14:07:37.288Z,6.45
2022-10-20T14:10:08.227Z,3.95
2022-10-20T14:12:35.926Z,6.93
2022-10-20T14:15:08.606Z,7.43
2022-10-20T14:17:40.517Z,4.47
2022-10-20T14:20:21.502Z,7.75
2022-10-20T14:22:52.277Z,5.60
2022-10-20T14:25:20.116Z,3.20
2022-10-20T14:27:47.607Z,5.45
2022-10-20T14:30:16.799Z,8.68
2022-10-20T14:32:47.638Z,6.07
2022-10-20T14:35:32.539Z,7.00
2022-10-20T14:38:06.244Z,7.68
2022-10-20T14:40:35.723Z,8.20
2022-10-20T14:43:19.577Z,6.95
2022-10-20T14:46:01.883Z,7.28
2022-10-20T14:48:39.166Z,8.40
2022-10-20T14:51:34.471Z,6.18
2022-10-20T14:54:22.801Z,9.55
2022-10-20T14:56:52.601Z,8.50
2022-10-20T14:59:23.402Z,4.70
2022-10-20T15:02:17.193Z,4.18
2022-10-20T15:04:45.530Z,8.05
2022-10-20T15:07:14.000Z,5.93
2022-10-20T15:09:52.321Z,5.95
2022-10-20T15:12:38.915Z,2.83
2022-10-20T15:15:11.789Z,5.38
2022-10-20T15:17:45.582Z,7.28
2022-10-20T15:20:38.935Z,7.28
2022-10-20T15:23:09.010Z,4.72
2022-10-20T15:25:59.926Z,3.65
2022-10-20T15:28:45.191Z,4.18
2022-10-20T15:31:27.230Z,7.60
2022-10-20T15:36:29.372Z,6.40
2022-10-20T15:38:59.937Z,6.07
2022-10-20T15:41:30.633Z,3.90
2022-10-20T15:44:27.008Z,3.88
2022-10-20T15:46:55.098Z,4.35
2022-10-20T15:49:26.161Z,5.80
2022-10-20T15:51:53.496Z,6.60
2022-10-20T15:54:22.891Z,5.63
2022-10-20T15:56:50.073Z,6.15
2022-10-20T15:59:16.969Z,5.72
2022-10-20T16:01:46.997Z,4.57
2022-10-20T16:04:22.408Z,11.27
2022-10-20T16:06:57.788Z,5.47
2022-10-20T16:09:26.506Z,5.95
2022-10-20T16:11:55.035Z,5.75
2022-10-20T16:14:24.681Z,5.22
2022-10-20T16:16:51.930Z,5.20
2022-10-20T16:19:18.836Z,6.82
2022-10-20T16:21:49.034Z,6.90
2022-10-20T16:24:15.961Z,5.72
2022-10-20T16:26:47.562Z,4.22
2022-10-20T16:29:14.699Z,3.80
2022-10-20T16:31:41.934Z,7.65
2022-10-20T16:34:09.301Z,5.80
2022-10-20T16:36:36.471Z,5.45
2022-10-20T16:39:03.544Z,5.18
2022-10-20T16:41:33.574Z,8.23
2022-10-20T16:44:01.328Z,11.18
2022-10-20T16:46:28.649Z,8.82
2022-10-20T16:48:57.342Z,10.43
2022-10-20T16:51:25.002Z,5.78
2022-10-20T16:53:53.684Z,7.57
2022-10-20T16:56:27.265Z,8.93
2022-10-20T16:58:54.341Z,4.70
2022-10-20T17:01:22.134Z,4.97
2022-10-20T17:03:52.014Z,6.38
2022-10-20T17:06:21.759Z,4.50
2022-10-20T17:08:49.221Z,7.55
2022-10-20T17:11:30.353Z,6.28
2022-10-20T17:13:58.182Z,6.32
2022-10-20T17:16:31.200Z,7.25
2022-10-20T17:19:00.507Z,11.02
2022-10-20T17:21:29.189Z,5.30
2022-10-20T17:23:56.976Z,6.78
2022-10-20T17:26:26.615Z,5.90
2022-10-20T17:28:56.838Z,7.72
2022-10-20T17:31:24.558Z,7.93
2022-10-20T17:33:54.967Z,9.70
2022-10-20T17:36:27.130Z,7.50
2022-10-20T17:38:56.446Z,9.63
2022-10-20T17:41:23.893Z,9.15
2022-10-20T17:43:50.928Z,8.95
2022-10-20T17:46:19.605Z,11.43
2022-10-20T17:48:47.160Z,11.13
2022-10-20T17:51:17.832Z,7.85
2022-10-20T17:53:48.028Z,7.95
2022-10-20T17:56:23.038Z,13.57
2022-10-20T17:58:52.014Z,10.73
2022-10-20T18:01:19.086Z,6.13
2022-10-20T18:03:47.601Z,13.25
2022-10-20T18:06:20.602Z,11.45
2022-10-20T18:08:48.605Z,10.30
2022-10-20T18:11:21.444Z,11.43
2022-10-20T18:13:48.539Z,8.30
2022-10-20T18:16:21.429Z,7.55
2022-10-20T18:18:48.659Z,12.23
2022-10-20T18:21:17.438Z,10.02
2022-10-20T18:23:46.021Z,10.88
2022-10-20T18:26:16.502Z,11.13
2022-10-20T18:28:48.179Z,9.20
2022-10-20T18:31:23.340Z,10.10
2022-10-20T18:33:54.478Z,13.70
2022-10-20T18:36:21.714Z,10.55
2022-10-20T18:38:48.991Z,8.30
2022-10-20T18:41:19.214Z,10.82
2022-10-20T18:43:46.718Z,10.77
2022-10-20T18:46:17.789Z,9.30
2022-10-20T18:48:44.935Z,12.40
2022-10-20T18:51:13.925Z,9.60
2022-10-20T18:53:43.495Z,12.57
2022-10-20T18:56:21.758Z,10.93
2022-10-20T18:59:03.714Z,7.80
2022-10-20T19:01:35.825Z,8.98
2022-10-20T19:06:38.579Z,13.13
2022-10-20T19:09:14.733Z,14.80
2022-10-20T19:11:43.074Z,11.00
2022-10-20T19:14:11.588Z,13.40
2022-10-20T19:16:40.100Z,16.85
2022-10-20T19:19:11.080Z,12.75
2022-10-20T19:21:38.162Z,8.23
2022-10-20T19:24:13.203Z,11.60
2022-10-20T19:26:52.789Z,12.50
2022-10-20T19:29:32.621Z,14.82
2022-10-20T19:32:01.921Z,15.75
2022-10-20T19:34:33.033Z,12.57
2022-10-20T19:37:06.640Z,13.50
2022-10-20T19:39:37.154Z,12.10
2022-10-20T19:42:06.913Z,12.48
2022-10-20T19:44:34.741Z,14.27
2022-10-20T19:47:02.574Z,14.10
2022-10-20T19:49:32.630Z,9.00
2022-10-20T19:51:59.889Z,13.50
2022-10-20T19:54:29.782Z,13.05
2022-10-20T19:56:56.927Z,11.02
2022-10-20T19:59:24.200Z,14.93
2022-10-20T20:01:52.741Z,11.35
2022-10-20T20:04:20.757Z,11.93
2022-10-20T20:06:48.199Z,10.63
2022-10-20T20:09:20.295Z,8.98
2022-10-20T20:14:17.618Z,12.68
2022-10-20T20:16:46.250Z,10.23
2022-10-20T20:19:17.446Z,14.48
2022-10-20T20:21:47.361Z,11.48
2022-10-20T20:24:17.362Z,14.77
2022-10-20T20:26:47.127Z,15.68
2022-10-20T20:29:15.655Z,11.15
2022-10-20T20:31:42.862Z,13.93
2022-10-20T20:34:10.012Z,12.63
2022-10-20T20:36:37.322Z,9.70
2022-10-20T20:39:04.372Z,16.30
2022-10-20T20:41:31.584Z,9.32
2022-10-20T20:44:02.922Z,14.65
2022-10-20T20:46:34.165Z,10.05
2022-10-20T20:49:03.396Z,9.90
2022-10-20T20:51:33.900Z,14.27
2022-10-20T20:54:02.765Z,11.93
2022-10-20T20:56:30.425Z,10.18
2022-10-20T20:59:00.388Z,12.02
2022-10-20T21:01:31.346Z,11.73
2022-10-20T21:04:00.838Z,10.27
2022-10-20T21:06:33.672Z,10.82
2022-10-20T21:09:07.003Z,13.20
2022-10-20T21:11:34.456Z,12.32
2022-10-20T21:14:01.555Z,11.80
2022-10-20T21:16:34.003Z,11.27
2022-10-20T21:19:04.321Z,14.20
2022-10-20T21:21:36.659Z,9.85
2022-10-20T21:24:05.093Z,11.30
2022-10-20T21:26:33.322Z,9.45
2022-10-20T21:29:00.783Z,8.45
2022-10-20T21:31:29.689Z,11.18
2022-10-20T21:34:00.613Z,14.23
2022-10-20T21:36:29.692Z,8.82
2022-10-20T21:38:59.592Z,15.85
2022-10-20T21:41:32.191Z,12.07
2022-10-20T21:44:02.900Z,23.67
2022-10-20T21:46:31.244Z,18.05
2022-10-20T21:49:04.314Z,10.55
2022-10-20T21:51:37.045Z,10.35
2022-10-20T21:54:09.521Z,7.70
2022-10-20T21:56:38.872Z,11.52
2022-10-20T21:59:07.079Z,11.60
2022-10-20T22:01:34.657Z,13.10
2022-10-20T22:04:01.744Z,10.23
2022-10-20T22:06:28.863Z,10.32
2022-10-20T22:08:59.701Z,9.77
2022-10-20T22:11:32.598Z,9.07
2022-10-20T22:13:59.885Z,8.13
2022-10-20T22:16:31.016Z,6.57
2022-10-20T22:19:01.422Z,5.35
2022-10-20T22:21:31.995Z,11.02
2022-10-20T22:24:00.270Z,8.00
2022-10-20T22:26:29.554Z,11.77
2022-10-20T22:28:58.840Z,8.27
2022-10-20T22:31:26.728Z,7.97
2022-10-20T22:33:56.111Z,7.95
2022-10-20T22:36:23.861Z,6.88
2022-10-20T22:38:50.803Z,10.32
2022-10-20T22:41:20.861Z,8.82
2022-10-20T22:43:47.954Z,7.93
2022-10-20T22:46:16.111Z,11.57
2022-10-20T22:48:43.168Z,10.13
2022-10-20T22:51:10.869Z,5.43
2022-10-20T22:53:38.756Z,8.73
2022-10-20T22:56:13.719Z,12.88
2022-10-20T22:58:44.499Z,5.88
2022-10-20T23:01:15.428Z,6.55
2022-10-20T23:03:43.446Z,7.80
2022-10-20T23:06:16.087Z,10.30
2022-10-20T23:08:48.747Z,10.30
2022-10-20T23:11:19.710Z,5.72
2022-10-20T23:13:49.308Z,11.18
2022-10-20T23:16:16.615Z,7.63
2022-10-20T23:18:43.764Z,4.97
2022-10-20T23:21:12.282Z,7.63
2022-10-20T23:23:45.599Z,5.38
2022-10-20T23:26:15.889Z,6.22
2022-10-20T23:28:44.186Z,4.40
2022-10-20T23:31:19.719Z,3.53
2022-10-20T23:33:48.623Z,4.10
2022-10-20T23:36:18.297Z,5.65
2022-10-20T23:38:46.396Z,9.98
2022-10-20T23:41:13.915Z,5.88
2022-10-20T23:43:41.548Z,10.20
2022-10-20T23:46:12.216Z,4.57
2022-10-20T23:48:39.646Z,5.88
2022-10-20T23:51:08.240Z,10.77
2022-10-20T23:53:35.574Z,5.68
2022-10-20T23:56:02.682Z,7.50
2022-10-20T23:58:29.713Z,5.75
